Time;durP1;ratioP1;P1;durP2;ratioP2;P2;SDS_P1;SDS_P2;PMS_P1;PMS_P2;Temp;Humidity;BMP_temperature;BMP_pressure;BME280_temperature;BME280_humidity;BME280_pressure;Samples;Min_cycle;Max_cycle;Signal;HPM_P1;HPM_P2
2022/12/05 00:02:01;;;;;;;42.65;22.92;;;;;;;;;;5012760;28;20025;-67
2022/12/05 00:04:27;;;;;;;40.80;23.40;;;;;;;;;;5013648;28;20088;-65
2022/12/05 00:06:53;;;;;;;42.88;23.27;;;;;;;;;;5012368;28;20150;-67
2022/12/05 00:09:19;;;;;;;46.97;22.90;;;;;;;;;;5012092;28;20026;-66
2022/12/05 00:11:46;;;;;;;42.38;21.85;;;;;;;;;;5013726;28;20029;-66
2022/12/05 00:14:12;;;;;;;43.75;22.40;;;;;;;;;;5011722;28;20030;-66
2022/12/05 00:16:39;;;;;;;39.08;21.77;;;;;;;;;;5012514;28;20105;-66
2022/12/05 00:19:06;;;;;;;42.83;23.17;;;;;;;;;;5011409;28;20044;-65
2022/12/05 00:21:33;;;;;;;39.95;22.40;;;;;;;;;;5013217;28;20105;-66
2022/12/05 00:23:59;;;;;;;45.95;22.20;;;;;;;;;;5012976;28;20030;-65
2022/12/05 00:26:26;;;;;;;42.30;23.63;;;;;;;;;;5012625;28;20037;-65
2022/12/05 00:28:52;;;;;;;42.30;21.40;;;;;;;;;;5011005;28;20037;-64
2022/12/05 00:31:22;;;;;;;45.25;21.73;;;;;;;;;;5012935;28;20517;-65
2022/12/05 00:33:48;;;;;;;43.95;22.70;;;;;;;;;;5012230;28;20034;-64
2022/12/05 00:36:16;;;;;;;44.50;21.90;;;;;;;;;;5013002;28;20033;-65
2022/12/05 00:38:42;;;;;;;42.00;20.87;;;;;;;;;;5012885;28;20026;-65
2022/12/05 00:41:10;;;;;;;42.88;22.30;;;;;;;;;;5012709;28;20276;-65
2022/12/05 00:43:36;;;;;;;43.42;20.63;;;;;;;;;;5012413;28;20508;-65
2022/12/05 00:46:07;;;;;;;40.17;21.80;;;;;;;;;;5011484;28;20081;-65
2022/12/05 00:48:33;;;;;;;38.08;22.50;;;;;;;;;;5011346;28;20117;-65
2022/12/05 00:51:04;;;;;;;42.20;23.58;;;;;;;;;;5011441;28;20033;-66
2022/12/05 00:53:30;;;;;;;41.45;22.20;;;;;;;;;;5012230;28;20025;-65
2022/12/05 00:55:57;;;;;;;44.83;26.90;;;;;;;;;;5006716;28;20041;-65
2022/12/05 00:58:23;;;;;;;47.95;23.85;;;;;;;;;;4991578;28;20117;-65
2022/12/05 01:00:49;;;;;;;55.72;34.50;;;;;;;;;;4993014;28;20061;-65
2022/12/05 01:03:15;;;;;;;45.63;25.67;;;;;;;;;;4992707;28;20495;-65
2022/12/05 01:05:41;;;;;;;45.40;24.05;;;;;;;;;;4992803;28;20430;-65
2022/12/05 01:08:07;;;;;;;56.92;29.95;;;;;;;;;;4991478;28;20018;-65
2022/12/05 01:10:33;;;;;;;45.17;26.50;;;;;;;;;;4991523;28;20022;-64
2022/12/05 01:12:59;;;;;;;53.40;27.33;;;;;;;;;;4991090;28;20089;-65
2022/12/05 01:15:25;;;;;;;43.70;24.88;;;;;;;;;;4991235;28;20070;-65
2022/12/05 01:17:51;;;;;;;41.25;21.67;;;;;;;;;;4991743;28;20130;-66
2022/12/05 01:20:17;;;;;;;40.58;22.40;;;;;;;;;;4992532;28;20029;-64
2022/12/05 01:22:43;;;;;;;44.40;23.80;;;;;;;;;;4991303;28;20038;-65
2022/12/05 01:25:09;;;;;;;43.55;22.67;;;;;;;;;;5007640;28;20501;-65
2022/12/05 01:27:35;;;;;;;40.80;21.92;;;;;;;;;;5010787;28;20030;-65
2022/12/05 01:30:01;;;;;;;39.33;22.15;;;;;;;;;;5012653;28;20018;-65
2022/12/05 01:32:27;;;;;;;39.80;22.95;;;;;;;;;;5016068;28;20026;-65
2022/12/05 01:34:54;;;;;;;36.30;20.75;;;;;;;;;;5014151;28;20029;-65
2022/12/05 01:37:20;;;;;;;41.85;22.75;;;;;;;;;;5015716;28;20057;-66
2022/12/05 01:39:47;;;;;;;39.58;22.33;;;;;;;;;;5015211;28;20033;-64
2022/12/05 01:42:13;;;;;;;41.50;22.77;;;;;;;;;;5016606;28;20113;-65
2022/12/05 01:44:42;;;;;;;41.63;22.67;;;;;;;;;;5014926;28;20308;-66
2022/12/05 01:47:08;;;;;;;37.90;21.58;;;;;;;;;;5015585;28;20555;-67
2022/12/05 01:49:37;;;;;;;39.45;21.98;;;;;;;;;;5008094;28;20030;-64
2022/12/05 01:52:21;;;;;;;42.33;22.42;;;;;;;;;;5007048;28;20695;-65
2022/12/05 01:54:48;;;;;;;37.78;21.40;;;;;;;;;;5028313;28;20562;-65
2022/12/05 01:57:15;;;;;;;34.67;19.08;;;;;;;;;;5002056;28;20018;-65
2022/12/05 01:59:47;;;;;;;38.15;21.02;;;;;;;;;;5010697;28;20029;-65
2022/12/05 02:02:13;;;;;;;40.10;22.45;;;;;;;;;;5015410;28;20029;-65
2022/12/05 02:04:45;;;;;;;46.60;23.77;;;;;;;;;;5013593;28;20049;-64
2022/12/05 02:07:11;;;;;;;39.65;21.88;;;;;;;;;;5013928;28;20394;-64
2022/12/05 02:09:37;;;;;;;37.67;19.88;;;;;;;;;;5015263;28;20389;-65
2022/12/05 02:12:04;;;;;;;38.50;21.35;;;;;;;;;;5015569;28;20017;-65
2022/12/05 02:14:36;;;;;;;41.80;23.00;;;;;;;;;;5014486;28;20022;-64
2022/12/05 02:17:07;;;;;;;44.47;21.65;;;;;;;;;;5014618;28;20026;-65
2022/12/05 02:19:36;;;;;;;39.65;21.55;;;;;;;;;;5010368;28;20143;-64
2022/12/05 02:22:17;;;;;;;42.40;22.48;;;;;;;;;;4995727;28;20438;-65
2022/12/05 02:24:46;;;;;;;39.35;22.23;;;;;;;;;;4995155;28;20039;-64
2022/12/05 02:27:27;;;;;;;38.67;21.58;;;;;;;;;;4994582;28;20026;-64
2022/12/05 02:29:53;;;;;;;45.95;23.75;;;;;;;;;;4994345;28;20486;-65
2022/12/05 02:32:28;;;;;;;42.95;23.25;;;;;;;;;;4995676;28;20033;-63
2022/12/05 02:35:11;;;;;;;40.45;22.63;;;;;;;;;;4994039;28;20415;-64
2022/12/05 02:37:43;;;;;;;41.63;23.15;;;;;;;;;;4995352;28;20029;-63
2022/12/05 02:40:23;;;;;;;45.38;24.92;;;;;;;;;;4993520;28;20034;-64
2022/12/05 02:42:49;;;;;;;39.20;21.30;;;;;;;;;;4994171;28;20054;-65
2022/12/05 02:45:16;;;;;;;40.60;21.52;;;;;;;;;;4993562;28;20065;-65
2022/12/05 02:47:45;;;;;;;44.72;24.92;;;;;;;;;;4995045;28;20403;-65
2022/12/05 02:50:13;;;;;;;41.15;22.42;;;;;;;;;;4994968;28;20018;-65
2022/12/05 02:52:40;;;;;;;39.38;23.05;;;;;;;;;;4994722;28;20034;-65
2022/12/05 02:55:07;;;;;;;38.15;21.35;;;;;;;;;;4994587;28;20494;-66
2022/12/05 02:57:34;;;;;;;41.42;22.55;;;;;;;;;;5014037;28;20027;-66
2022/12/05 03:00:00;;;;;;;38.17;23.38;;;;;;;;;;5014321;28;20030;-65
2022/12/05 03:02:28;;;;;;;39.30;23.50;;;;;;;;;;5014242;28;20033;-66
2022/12/05 03:05:14;;;;;;;40.28;22.35;;;;;;;;;;5012491;28;20053;-65
2022/12/05 03:07:41;;;;;;;40.67;22.80;;;;;;;;;;4994658;28;20030;-65
2022/12/05 03:10:07;;;;;;;38.22;23.02;;;;;;;;;;4994622;28;20368;-65
2022/12/05 03:12:38;;;;;;;42.78;22.73;;;;;;;;;;4994364;28;20025;-64
2022/12/05 03:15:04;;;;;;;40.42;23.95;;;;;;;;;;4993343;28;20030;-66
2022/12/05 03:17:41;;;;;;;42.95;24.95;;;;;;;;;;4994723;28;20026;-65
2022/12/05 03:20:18;;;;;;;36.90;21.63;;;;;;;;;;4993286;28;20034;-65
2022/12/05 03:22:44;;;;;;;36.70;22.38;;;;;;;;;;5007172;28;20096;-65
2022/12/05 03:25:11;;;;;;;44.72;25.90;;;;;;;;;;5012639;28;20430;-64
2022/12/05 03:27:52;;;;;;;41.15;23.00;;;;;;;;;;5012739;28;20026;-65
2022/12/05 03:30:22;;;;;;;40.75;22.75;;;;;;;;;;5014032;28;20028;-70
2022/12/05 03:35:38;;;;;;;43.15;24.65;;;;;;;;;;5027475;22;20056;-67
2022/12/05 03:38:09;;;;;;;46.10;23.58;;;;;;;;;;5011454;28;20058;-67
2022/12/05 03:40:42;;;;;;;40.40;23.90;;;;;;;;;;5010132;28;20026;-67
2022/12/05 03:43:11;;;;;;;41.72;23.25;;;;;;;;;;5010945;28;20169;-66
2022/12/05 03:45:40;;;;;;;37.83;23.02;;;;;;;;;;5011440;28;20318;-67
2022/12/05 03:48:14;;;;;;;40.85;23.13;;;;;;;;;;5011401;28;20049;-66
2022/12/05 03:50:42;;;;;;;38.20;22.83;;;;;;;;;;5011276;28;20088;-67
2022/12/05 03:53:15;;;;;;;41.60;22.27;;;;;;;;;;5010220;28;20022;-68
2022/12/05 03:55:42;;;;;;;40.35;21.40;;;;;;;;;;5011646;28;20030;-66
2022/12/05 03:58:14;;;;;;;39.58;22.52;;;;;;;;;;5010101;28;20053;-66
2022/12/05 04:00:42;;;;;;;36.00;20.92;;;;;;;;;;5011205;28;20025;-66
2022/12/05 04:03:13;;;;;;;37.80;23.02;;;;;;;;;;5009371;28;20022;-67
2022/12/05 04:05:42;;;;;;;41.47;22.50;;;;;;;;;;5011040;28;20033;-67
2022/12/05 04:08:31;;;;;;;42.67;24.88;;;;;;;;;;5010862;28;20482;-67
2022/12/05 04:11:00;;;;;;;39.55;22.95;;;;;;;;;;5005524;28;20046;-66
2022/12/05 04:13:26;;;;;;;;;;;;;;;;;;5011205;28;20065;-67
2022/12/05 04:19:06;;;;;;;39.83;23.02;;;;;;;;;;5011472;28;20045;-67
2022/12/05 04:21:38;;;;;;;40.83;24.15;;;;;;;;;;5011012;28;20037;-67
2022/12/05 04:27:17;;;;;;;41.53;22.98;;;;;;;;;;5030632;28;20119;-67
2022/12/05 04:29:50;;;;;;;41.22;24.35;;;;;;;;;;5030699;28;20104;-67
2022/12/05 04:32:18;;;;;;;41.03;24.80;;;;;;;;;;5029121;28;20098;-68
2022/12/05 04:34:46;;;;;;;42.83;23.50;;;;;;;;;;5029896;28;20034;-67
2022/12/05 04:37:18;;;;;;;45.17;25.45;;;;;;;;;;5030374;28;20264;-67
2022/12/05 04:39:48;;;;;;;43.85;26.00;;;;;;;;;;5030451;28;20100;-67
2022/12/05 04:42:16;;;;;;;43.63;24.00;;;;;;;;;;5030314;28;20033;-67
2022/12/05 04:44:44;;;;;;;50.63;26.75;;;;;;;;;;5030007;28;20018;-67
2022/12/05 04:47:13;;;;;;;38.90;22.85;;;;;;;;;;5030366;28;20117;-67
2022/12/05 04:49:40;;;;;;;42.97;24.83;;;;;;;;;;5019053;28;20033;-67
2022/12/05 04:52:10;;;;;;;44.45;23.35;;;;;;;;;;5009480;28;20494;-67
2022/12/05 04:54:42;;;;;;;39.55;25.45;;;;;;;;;;5008678;28;20390;-67
2022/12/05 04:57:13;;;;;;;40.65;23.13;;;;;;;;;;5010242;28;20048;-68
2022/12/05 04:59:39;;;;;;;39.35;25.00;;;;;;;;;;5010224;28;20057;-67
2022/12/05 05:02:10;;;;;;;36.13;23.02;;;;;;;;;;5009029;28;20395;-67
2022/12/05 05:04:37;;;;;;;40.40;22.90;;;;;;;;;;5012775;28;20030;-67
2022/12/05 05:07:07;;;;;;;41.67;24.35;;;;;;;;;;5019642;28;20018;-67
2022/12/05 05:09:34;;;;;;;42.88;24.35;;;;;;;;;;5034014;28;20044;-67
2022/12/05 05:12:00;;;;;;;42.80;25.58;;;;;;;;;;5034100;28;20026;-68
2022/12/05 05:14:26;;;;;;;41.47;26.48;;;;;;;;;;5033614;28;20028;-67
2022/12/05 05:16:52;;;;;;;41.67;24.60;;;;;;;;;;5033656;28;20515;-68
2022/12/05 05:19:18;;;;;;;39.45;23.73;;;;;;;;;;5033887;28;20032;-67
2022/12/05 05:21:44;;;;;;;39.20;23.50;;;;;;;;;;5034069;28;20021;-68
2022/12/05 05:24:11;;;;;;;37.47;22.98;;;;;;;;;;5032469;28;20377;-68
2022/12/05 05:26:40;;;;;;;37.30;24.35;;;;;;;;;;5033836;28;20032;-66
2022/12/05 05:29:07;;;;;;;41.13;23.25;;;;;;;;;;5033706;28;20022;-68
2022/12/05 05:31:33;;;;;;;41.28;24.08;;;;;;;;;;5033768;28;20105;-67
2022/12/05 05:33:59;;;;;;;36.40;23.30;;;;;;;;;;5031756;28;20029;-67
2022/12/05 05:36:26;;;;;;;40.72;24.08;;;;;;;;;;5015403;28;20080;-67
2022/12/05 05:38:54;;;;;;;36.00;20.77;;;;;;;;;;5013564;28;20176;-67
2022/12/05 05:41:21;;;;;;;34.75;21.90;;;;;;;;;;5012483;28;20030;-67
2022/12/05 05:43:48;;;;;;;38.17;23.58;;;;;;;;;;5012994;28;20087;-67
2022/12/05 05:46:15;;;;;;;38.13;21.83;;;;;;;;;;5013333;28;20054;-67
2022/12/05 05:48:41;;;;;;;35.90;22.58;;;;;;;;;;5012267;28;20018;-68
2022/12/05 05:51:07;;;;;;;35.75;22.88;;;;;;;;;;5013536;28;20034;-67
2022/12/05 05:53:33;;;;;;;33.92;20.67;;;;;;;;;;5014250;28;20070;-66
2022/12/05 05:56:07;;;;;;;34.03;21.67;;;;;;;;;;5014620;28;20026;-66
2022/12/05 05:58:33;;;;;;;37.67;21.70;;;;;;;;;;5013041;28;20029;-66
2022/12/05 06:01:03;;;;;;;33.88;20.52;;;;;;;;;;5013487;28;20076;-65
2022/12/05 06:03:29;;;;;;;34.35;21.05;;;;;;;;;;5024366;28;20121;-67
2022/12/05 06:05:56;;;;;;;38.72;22.83;;;;;;;;;;5031652;28;20592;-67
2022/12/05 06:08:22;;;;;;;36.17;21.63;;;;;;;;;;5033378;28;20025;-66
2022/12/05 06:10:48;;;;;;;36.30;21.50;;;;;;;;;;5032957;28;20537;-66
2022/12/05 06:13:14;;;;;;;34.25;20.90;;;;;;;;;;5032555;28;20043;-66
2022/12/05 06:15:40;;;;;;;35.53;20.45;;;;;;;;;;5029911;28;20116;-66
2022/12/05 06:18:06;;;;;;;33.08;21.05;;;;;;;;;;5032929;28;20053;-66
2022/12/05 06:20:32;;;;;;;36.17;20.60;;;;;;;;;;5032762;28;20456;-66
2022/12/05 06:22:58;;;;;;;34.60;20.02;;;;;;;;;;5032572;28;20049;-66
2022/12/05 06:25:24;;;;;;;35.45;20.88;;;;;;;;;;5032398;28;20473;-66
2022/12/05 06:27:50;;;;;;;32.78;20.38;;;;;;;;;;5031114;28;20025;-66
2022/12/05 06:30:16;;;;;;;35.60;21.70;;;;;;;;;;5029496;28;20090;-67
2022/12/05 06:32:42;;;;;;;35.45;20.83;;;;;;;;;;5012686;28;20028;-68
2022/12/05 06:35:14;;;;;;;30.00;19.98;;;;;;;;;;5010872;28;20041;-66
2022/12/05 06:37:41;;;;;;;33.28;21.45;;;;;;;;;;5012305;28;20489;-66
2022/12/05 06:40:07;;;;;;;34.45;19.98;;;;;;;;;;5012688;28;20026;-65
2022/12/05 06:42:33;;;;;;;32.70;19.83;;;;;;;;;;5010899;28;20030;-66
2022/12/05 06:44:59;;;;;;;33.15;19.95;;;;;;;;;;5011935;28;20030;-66
2022/12/05 06:47:25;;;;;;;34.88;20.63;;;;;;;;;;5011084;28;20119;-64
2022/12/05 06:49:51;;;;;;;31.10;19.67;;;;;;;;;;5012866;28;20113;-64
2022/12/05 06:52:17;;;;;;;32.53;19.40;;;;;;;;;;5012508;28;20017;-67
2022/12/05 06:54:43;;;;;;;35.58;21.75;;;;;;;;;;5012245;28;20433;-66
2022/12/05 06:57:09;;;;;;;32.95;19.55;;;;;;;;;;5012123;28;20037;-65
2022/12/05 06:59:35;;;;;;;32.60;19.20;;;;;;;;;;5024062;28;20036;-64
2022/12/05 07:02:01;;;;;;;33.30;19.92;;;;;;;;;;5028735;28;20025;-65
2022/12/05 07:04:27;;;;;;;36.33;18.95;;;;;;;;;;5031945;28;20028;-66
2022/12/05 07:06:54;;;;;;;29.67;18.90;;;;;;;;;;5030101;28;20173;-70
2022/12/05 07:09:22;;;;;;;31.98;20.95;;;;;;;;;;5016919;28;20022;-65
2022/12/05 07:11:51;;;;;;;33.22;18.55;;;;;;;;;;5011476;28;20129;-66
2022/12/05 07:14:17;;;;;;;31.35;18.60;;;;;;;;;;5011624;28;20030;-66
2022/12/05 07:16:43;;;;;;;30.92;18.83;;;;;;;;;;5015172;28;20021;-65
2022/12/05 07:19:10;;;;;;;34.25;18.25;;;;;;;;;;5031330;28;20437;-66
2022/12/05 07:21:36;;;;;;;32.80;20.23;;;;;;;;;;5030822;28;20366;-66
2022/12/05 07:24:02;;;;;;;32.30;17.98;;;;;;;;;;5030173;28;20028;-65
2022/12/05 07:26:28;;;;;;;33.20;20.15;;;;;;;;;;5028536;28;20036;-66
2022/12/05 07:28:55;;;;;;;33.65;19.48;;;;;;;;;;5029658;28;20018;-66
2022/12/05 07:31:22;;;;;;;35.63;21.07;;;;;;;;;;5030997;28;20029;-65
2022/12/05 07:33:49;;;;;;;31.75;18.55;;;;;;;;;;5024784;28;20046;-65
2022/12/05 07:36:17;;;;;;;34.45;20.13;;;;;;;;;;5030574;28;20025;-66
2022/12/05 07:38:44;;;;;;;36.03;19.92;;;;;;;;;;5030592;28;20504;-65
2022/12/05 07:41:13;;;;;;;33.17;18.80;;;;;;;;;;5029616;28;20025;-67
2022/12/05 07:43:39;;;;;;;31.92;18.08;;;;;;;;;;5030515;28;20415;-64
2022/12/05 07:46:06;;;;;;;33.03;20.27;;;;;;;;;;5028710;28;20025;-68
2022/12/05 07:48:32;;;;;;;32.10;19.42;;;;;;;;;;5030312;28;20022;-63
2022/12/05 07:51:00;;;;;;;33.63;18.67;;;;;;;;;;5030552;28;20056;-68
2022/12/05 07:53:26;;;;;;;29.05;18.13;;;;;;;;;;5030458;28;20105;-65
2022/12/05 07:55:52;;;;;;;39.47;22.92;;;;;;;;;;5010769;28;20038;-66
2022/12/05 07:58:18;;;;;;;33.28;19.50;;;;;;;;;;5010731;28;20030;-67
2022/12/05 08:00:44;;;;;;;29.80;19.10;;;;;;;;;;5017154;28;20116;-65
2022/12/05 08:03:10;;;;;;;30.00;18.45;;;;;;;;;;5029997;28;20029;-66
2022/12/05 08:05:37;;;;;;;28.80;20.83;;;;;;;;;;5030083;28;20466;-66
2022/12/05 08:08:03;;;;;;;31.50;19.50;;;;;;;;;;5030582;28;20477;-66
2022/12/05 08:10:29;;;;;;;30.40;19.38;;;;;;;;;;5030326;28;20029;-67
2022/12/05 08:12:55;;;;;;;29.48;18.55;;;;;;;;;;5030418;28;20026;-65
2022/12/05 08:15:21;;;;;;;33.35;19.25;;;;;;;;;;5028749;28;20026;-65
2022/12/05 08:17:47;;;;;;;34.15;20.98;;;;;;;;;;5028965;28;20477;-66
2022/12/05 08:20:13;;;;;;;33.67;20.27;;;;;;;;;;5030051;28;20033;-67
2022/12/05 08:22:39;;;;;;;36.05;20.23;;;;;;;;;;5017742;28;20030;-66
2022/12/05 08:25:05;;;;;;;32.67;19.55;;;;;;;;;;5009790;28;20117;-67
2022/12/05 08:27:32;;;;;;;31.55;19.63;;;;;;;;;;5010074;28;20109;-66
2022/12/05 08:29:58;;;;;;;32.78;20.67;;;;;;;;;;5009404;28;20029;-66
2022/12/05 08:32:24;;;;;;;29.00;18.63;;;;;;;;;;5010343;28;20073;-66
2022/12/05 08:34:50;;;;;;;29.73;19.23;;;;;;;;;;5016045;28;20085;-66
2022/12/05 08:37:16;;;;;;;31.65;19.13;;;;;;;;;;5023010;28;20034;-69
2022/12/05 08:39:42;;;;;;;32.33;19.75;;;;;;;;;;5017531;28;20049;-66
2022/12/05 08:42:08;;;;;;;30.30;19.02;;;;;;;;;;5015518;28;20076;-66
2022/12/05 08:44:34;;;;;;;28.02;17.77;;;;;;;;;;5008647;28;20022;-67
2022/12/05 08:47:00;;;;;;;32.20;19.50;;;;;;;;;;5009832;28;20060;-67
2022/12/05 08:49:27;;;;;;;29.65;19.92;;;;;;;;;;5010366;28;20022;-69
2022/12/05 08:51:53;;;;;;;30.42;19.20;;;;;;;;;;5028675;28;20172;-68
2022/12/05 08:54:19;;;;;;;27.92;18.70;;;;;;;;;;5029480;28;20030;-63
2022/12/05 08:56:45;;;;;;;30.45;19.13;;;;;;;;;;5029846;28;20098;-65
2022/12/05 08:59:11;;;;;;;30.90;19.70;;;;;;;;;;5029701;28;20036;-65
2022/12/05 09:01:37;;;;;;;31.17;19.73;;;;;;;;;;5029604;28;20114;-65
2022/12/05 09:04:04;;;;;;;33.28;18.50;;;;;;;;;;5029265;28;20025;-64
2022/12/05 09:06:31;;;;;;;31.25;18.60;;;;;;;;;;5029762;28;20037;-65
2022/12/05 09:08:59;;;;;;;29.52;19.30;;;;;;;;;;5028692;28;20371;-66
2022/12/05 09:11:26;;;;;;;30.38;18.35;;;;;;;;;;5028524;28;20030;-64
2022/12/05 09:13:53;;;;;;;29.77;18.95;;;;;;;;;;5029472;28;20071;-65
2022/12/05 09:16:28;;;;;;;32.47;19.95;;;;;;;;;;5029900;28;20047;-66
2022/12/05 09:18:55;;;;;;;29.48;18.77;;;;;;;;;;5014218;28;20575;-65
2022/12/05 09:21:22;;;;;;;27.17;20.00;;;;;;;;;;5010138;28;20193;-66
2022/12/05 09:23:48;;;;;;;30.00;19.60;;;;;;;;;;5009716;28;20376;-66
2022/12/05 09:26:15;;;;;;;28.95;18.40;;;;;;;;;;5009603;28;20107;-66
2022/12/05 09:28:42;;;;;;;28.40;17.85;;;;;;;;;;5009939;28;20026;-65
2022/12/05 09:31:10;;;;;;;28.05;16.65;;;;;;;;;;5015172;28;20091;-65
2022/12/05 09:33:36;;;;;;;27.52;18.02;;;;;;;;;;5009379;28;20405;-65
2022/12/05 09:36:06;;;;;;;27.90;17.65;;;;;;;;;;5027515;23;20041;-55
2022/12/05 09:38:32;;;;;;;26.45;17.13;;;;;;;;;;5030742;28;20040;-66
2022/12/05 09:42:03;;;;;;;27.90;17.17;;;;;;;;;;5046181;28;20033;-65
2022/12/05 09:44:12;;;;;;;27.00;16.92;;;;;;;;;;5030482;28;20029;-63
2022/12/05 09:46:45;;;;;;;27.85;16.95;;;;;;;;;;5016029;28;20038;-62
2022/12/05 09:49:12;;;;;;;27.30;17.23;;;;;;;;;;5008616;28;20033;-63
2022/12/05 09:51:41;;;;;;;26.55;18.05;;;;;;;;;;5012779;28;20113;-64
2022/12/05 09:54:09;;;;;;;29.10;18.80;;;;;;;;;;5015221;28;20097;-64
2022/12/05 09:56:35;;;;;;;;;;;;;;;;;;5014347;28;20445;-63
2022/12/05 09:59:01;;;;;;;27.65;16.60;;;;;;;;;;5014169;28;19905;-64
2022/12/05 10:01:30;;;;;;;27.58;16.13;;;;;;;;;;5022316;28;20080;-63
2022/12/05 10:04:02;;;;;;;26.55;16.70;;;;;;;;;;5033650;28;20029;-63
2022/12/05 10:06:31;;;;;;;26.73;16.95;;;;;;;;;;5032843;28;20386;-63
2022/12/05 10:09:21;;;;;;;27.05;17.25;;;;;;;;;;5032507;28;20116;-64
2022/12/05 10:11:50;;;;;;;26.77;17.15;;;;;;;;;;5005379;28;20426;-64
2022/12/05 10:14:37;;;;;;;28.88;18.48;;;;;;;;;;5031864;28;20021;-63
2022/12/05 10:17:23;;;;;;;27.98;16.98;;;;;;;;;;5033804;28;20449;-66
2022/12/05 10:19:51;;;;;;;26.13;15.95;;;;;;;;;;5033570;28;20029;-63
2022/12/05 10:22:40;;;;;;;24.97;16.37;;;;;;;;;;5032534;28;20205;-64
2022/12/05 10:25:07;;;;;;;24.13;16.27;;;;;;;;;;5028050;28;20280;-64
2022/12/05 10:27:36;;;;;;;24.92;16.13;;;;;;;;;;5033515;28;20021;-63
2022/12/05 10:30:06;;;;;;;25.15;17.58;;;;;;;;;;5034258;28;20017;-63
2022/12/05 10:32:52;;;;;;;27.25;18.88;;;;;;;;;;5032254;28;20025;-65
2022/12/05 10:35:23;;;;;;;25.45;18.90;;;;;;;;;;5033632;28;20056;-64
2022/12/05 10:37:52;;;;;;;25.52;18.92;;;;;;;;;;5033691;28;20033;-62
2022/12/05 10:40:18;;;;;;;23.67;17.58;;;;;;;;;;5034137;28;20451;-64
2022/12/05 10:42:44;;;;;;;25.90;17.90;;;;;;;;;;5016019;28;20042;-66
2022/12/05 10:45:19;;;;;;;24.20;16.40;;;;;;;;;;5014272;28;20457;-63
2022/12/05 10:47:45;;;;;;;24.38;17.30;;;;;;;;;;5014286;28;20026;-62
2022/12/05 10:50:21;;;;;;;23.50;17.02;;;;;;;;;;5013243;28;20113;-63
2022/12/05 10:52:47;;;;;;;28.70;17.95;;;;;;;;;;5013954;28;20018;-64
2022/12/05 10:55:16;;;;;;;23.08;18.10;;;;;;;;;;5013462;28;20041;-62
2022/12/05 10:57:42;;;;;;;23.27;16.98;;;;;;;;;;5013665;28;20571;-63
2022/12/05 11:00:13;;;;;;;22.15;16.98;;;;;;;;;;5013691;28;20045;-61
2022/12/05 11:02:39;;;;;;;23.83;18.05;;;;;;;;;;5031762;28;20048;-64
2022/12/05 11:05:06;;;;;;;24.23;17.33;;;;;;;;;;5033088;28;20018;-65
2022/12/05 11:07:34;;;;;;;25.08;17.55;;;;;;;;;;5032968;28;20159;-64
2022/12/05 11:10:02;;;;;;;24.23;17.63;;;;;;;;;;5032328;28;20508;-64
2022/12/05 11:12:29;;;;;;;23.27;18.38;;;;;;;;;;5032840;28;20026;-63
2022/12/05 11:15:00;;;;;;;22.58;16.92;;;;;;;;;;5032550;28;20025;-64
2022/12/05 11:17:30;;;;;;;22.77;17.60;;;;;;;;;;5030720;28;20029;-61
2022/12/05 11:19:56;;;;;;;22.42;17.65;;;;;;;;;;5032523;28;20043;-65
2022/12/05 11:22:29;;;;;;;23.90;17.98;;;;;;;;;;5032320;28;20559;-63
2022/12/05 11:24:55;;;;;;;23.60;17.50;;;;;;;;;;5031845;28;20034;-63
2022/12/05 11:27:26;;;;;;;24.60;17.52;;;;;;;;;;5030472;28;20239;-63
2022/12/05 11:30:01;;;;;;;24.88;18.10;;;;;;;;;;5032736;28;20100;-64
2022/12/05 11:32:29;;;;;;;26.05;18.42;;;;;;;;;;5032530;28;20048;-60
2022/12/05 11:34:58;;;;;;;22.30;16.67;;;;;;;;;;5032313;28;20104;-64
2022/12/05 11:37:26;;;;;;;23.00;17.15;;;;;;;;;;5022419;28;20038;-64
2022/12/05 11:39:52;;;;;;;22.90;17.88;;;;;;;;;;5010653;28;20026;-62
2022/12/05 11:42:27;;;;;;;22.63;17.65;;;;;;;;;;5013059;28;20030;-60
2022/12/05 11:44:56;;;;;;;26.42;18.35;;;;;;;;;;5011123;28;20033;-63
2022/12/05 11:47:34;;;;;;;24.45;17.90;;;;;;;;;;5011437;28;20065;-62
2022/12/05 11:50:07;;;;;;;24.85;18.88;;;;;;;;;;5012508;28;20022;-62
2022/12/05 11:52:42;;;;;;;25.42;19.02;;;;;;;;;;5012431;28;20022;-61
2022/12/05 11:55:11;;;;;;;25.55;18.75;;;;;;;;;;5012006;28;20033;-62
2022/12/05 11:57:56;;;;;;;23.98;18.52;;;;;;;;;;5012527;28;20028;-63
2022/12/05 12:00:25;;;;;;;27.42;19.10;;;;;;;;;;5012382;28;20041;-64
2022/12/05 12:03:14;;;;;;;28.35;20.58;;;;;;;;;;5032350;28;20085;-66
2022/12/05 12:05:54;;;;;;;24.13;19.52;;;;;;;;;;5031136;28;20025;-63
2022/12/05 12:08:27;;;;;;;24.80;20.15;;;;;;;;;;5030937;28;20120;-62
2022/12/05 12:11:06;;;;;;;24.02;19.88;;;;;;;;;;5032166;28;20029;-61
2022/12/05 12:13:51;;;;;;;26.42;19.80;;;;;;;;;;5038483;28;20025;-61
2022/12/05 12:16:29;;;;;;;24.75;20.85;;;;;;;;;;5050630;28;20032;-63
2022/12/05 12:18:56;;;;;;;27.10;21.13;;;;;;;;;;5051663;28;20031;-61
2022/12/05 12:21:33;;;;;;;27.42;22.08;;;;;;;;;;5051594;28;20705;-64
2022/12/05 12:24:19;;;;;;;27.15;22.23;;;;;;;;;;5051542;28;20044;-61
2022/12/05 12:26:52;;;;;;;29.00;23.45;;;;;;;;;;5050190;28;20029;-63
2022/12/05 12:29:24;;;;;;;31.38;23.05;;;;;;;;;;5051079;28;20104;-62
2022/12/05 12:32:02;;;;;;;25.25;21.55;;;;;;;;;;5051505;28;20021;-61
2022/12/05 12:34:48;;;;;;;26.25;21.65;;;;;;;;;;5049908;28;20446;-61
2022/12/05 12:37:14;;;;;;;26.77;22.80;;;;;;;;;;5051101;28;20086;-62
2022/12/05 12:39:43;;;;;;;26.83;22.92;;;;;;;;;;5032093;28;20026;-64
2022/12/05 12:42:30;;;;;;;29.25;22.67;;;;;;;;;;5011669;28;20490;-64
2022/12/05 12:44:56;;;;;;;26.80;22.65;;;;;;;;;;5010481;28;20026;-64
2022/12/05 12:47:36;;;;;;;27.00;22.50;;;;;;;;;;5011588;28;20045;-63
2022/12/05 12:50:02;;;;;;;27.05;22.88;;;;;;;;;;5010433;28;20018;-64
2022/12/05 12:52:39;;;;;;;29.52;23.02;;;;;;;;;;5010824;28;20033;-64
2022/12/05 12:55:06;;;;;;;25.20;22.40;;;;;;;;;;5010235;28;20026;-63
2022/12/05 12:57:51;;;;;;;27.10;22.25;;;;;;;;;;5010277;28;20473;-63
2022/12/05 13:00:20;;;;;;;28.10;22.92;;;;;;;;;;5011270;28;20065;-64
2022/12/05 13:02:51;;;;;;;26.25;21.73;;;;;;;;;;5030666;28;20108;-65
2022/12/05 13:05:21;;;;;;;25.45;21.60;;;;;;;;;;5030371;28;20369;-62
2022/12/05 13:08:13;;;;;;;25.90;21.55;;;;;;;;;;5029286;28;20060;-62
2022/12/05 13:10:43;;;;;;;26.33;22.02;;;;;;;;;;5007503;28;20029;-62
2022/12/05 13:13:13;;;;;;;26.85;21.83;;;;;;;;;;5030625;28;20075;-62
2022/12/05 13:15:43;;;;;;;28.02;22.38;;;;;;;;;;5030267;28;20516;-62
2022/12/05 13:18:14;;;;;;;25.45;22.25;;;;;;;;;;5031177;28;20741;-63
2022/12/05 13:20:40;;;;;;;28.10;22.15;;;;;;;;;;5031225;28;20033;-61
2022/12/05 13:23:08;;;;;;;29.40;23.23;;;;;;;;;;5030742;28;20030;-62
2022/12/05 13:25:37;;;;;;;27.43;23.10;;;;;;;;;;5033286;28;20025;-62
2022/12/05 13:28:05;;;;;;;25.77;22.17;;;;;;;;;;5033261;28;20033;-63
2022/12/05 13:30:32;;;;;;;27.23;21.13;;;;;;;;;;5033446;28;20075;-63
2022/12/05 13:33:01;;;;;;;26.35;22.63;;;;;;;;;;5034511;28;20587;-63
2022/12/05 13:43:57;;;;;;;26.58;22.92;;;;;;;;;;5034659;28;20119;-62
2022/12/05 13:46:27;;;;;;;25.85;21.98;;;;;;;;;;5032634;28;20382;-62
2022/12/05 13:48:59;;;;;;;27.55;21.83;;;;;;;;;;5034118;28;20049;-62
2022/12/05 13:51:33;;;;;;;27.88;22.13;;;;;;;;;;5032070;28;20017;-60
2022/12/05 13:54:19;;;;;;;28.48;24.23;;;;;;;;;;5032308;28;20097;-59
2022/12/05 13:56:51;;;;;;;27.80;23.67;;;;;;;;;;5036342;28;20474;-65
2022/12/05 13:59:35;;;;;;;29.33;23.52;;;;;;;;;;5036591;28;20030;-65
2022/12/05 14:02:01;;;;;;;30.30;23.73;;;;;;;;;;5036267;28;20030;-61
2022/12/05 14:04:46;;;;;;;25.55;22.73;;;;;;;;;;5035194;28;20021;-64
2022/12/05 14:07:33;;;;;;;26.52;23.55;;;;;;;;;;5034763;28;20071;-64
2022/12/05 14:09:59;;;;;;;28.85;23.13;;;;;;;;;;5034230;28;20037;-64
2022/12/05 14:12:26;;;;;;;27.15;22.85;;;;;;;;;;5033840;28;20021;-62
2022/12/05 14:14:55;;;;;;;29.25;25.73;;;;;;;;;;5031699;28;20371;-64
2022/12/05 14:17:24;;;;;;;28.70;24.42;;;;;;;;;;5032115;28;20030;-62
2022/12/05 14:20:06;;;;;;;28.23;24.17;;;;;;;;;;5033635;28;20029;-65
2022/12/05 14:22:32;;;;;;;29.20;23.52;;;;;;;;;;5033978;28;20021;-64
2022/12/05 14:25:10;;;;;;;27.70;23.67;;;;;;;;;;5033317;28;20025;-64
2022/12/05 14:27:40;;;;;;;29.88;25.15;;;;;;;;;;5033652;28;20029;-63
2022/12/05 14:30:06;;;;;;;27.80;24.17;;;;;;;;;;5032356;28;20496;-64
2022/12/05 14:32:34;;;;;;;30.40;25.35;;;;;;;;;;5033740;28;20071;-61
2022/12/05 14:35:00;;;;;;;;;;;;;;;;;;5032202;28;20067;-63
2022/12/05 14:37:31;;;;;;;30.02;23.65;;;;;;;;;;5031083;28;19912;-63
2022/12/05 14:39:59;;;;;;;29.90;25.90;;;;;;;;;;5033395;28;20065;-64
2022/12/05 14:42:25;;;;;;;30.98;25.42;;;;;;;;;;5031943;28;20033;-64
2022/12/05 14:44:53;;;;;;;31.23;24.13;;;;;;;;;;5033210;28;20026;-65
2022/12/05 14:47:31;;;;;;;33.03;24.15;;;;;;;;;;5032953;28;20030;-65
2022/12/05 14:50:00;;;;;;;28.98;24.58;;;;;;;;;;5033391;28;20025;-64